createdAt,value
2023-03-03T00:01:07.630Z,48.67
2023-03-03T00:04:12.096Z,39.08
2023-03-03T00:07:22.408Z,48.28
2023-03-03T00:10:26.332Z,59.53
2023-03-03T00:13:33.410Z,23.83
2023-03-03T00:16:40.254Z,197.68
2023-03-03T00:19:47.955Z,29.58
2023-03-03T00:22:52.198Z,88.40
2023-03-03T00:25:57.607Z,23.75
2023-03-03T00:29:02.852Z,31.48
2023-03-03T00:32:26.829Z,25.98
2023-03-03T00:35:39.419Z,30.15
2023-03-03T00:38:45.120Z,38.15
2023-03-03T00:41:50.518Z,28.67
2023-03-03T00:45:01.528Z,27.85
2023-03-03T00:48:28.593Z,24.05
2023-03-03T00:51:37.798Z,49.28
2023-03-03T00:54:42.081Z,32.33
2023-03-03T00:57:46.389Z,49.00
2023-03-03T01:00:55.686Z,24.40
2023-03-03T01:04:05.818Z,20.10
2023-03-03T01:07:10.181Z,43.22
2023-03-03T01:10:14.276Z,20.60
2023-03-03T01:13:19.354Z,17.67
2023-03-03T01:16:23.789Z,16.42
2023-03-03T01:19:28.216Z,17.02
2023-03-03T01:22:32.526Z,18.63
2023-03-03T01:25:37.365Z,21.70
2023-03-03T01:28:42.780Z,34.47
2023-03-03T01:31:47.199Z,18.45
2023-03-03T01:34:51.315Z,17.58
2023-03-03T01:37:55.228Z,19.38
2023-03-03T01:41:01.410Z,25.30
2023-03-03T01:44:05.913Z,18.23
2023-03-03T01:47:15.736Z,15.27
2023-03-03T01:50:37.559Z,17.15
2023-03-03T01:53:47.555Z,16.85
2023-03-03T01:56:56.877Z,19.27
2023-03-03T02:00:03.715Z,18.42
2023-03-03T02:03:16.454Z,22.90
2023-03-03T02:06:28.863Z,17.92
2023-03-03T02:10:00.754Z,17.15
2023-03-03T02:13:06.374Z,17.70
2023-03-03T02:16:10.452Z,21.10
2023-03-03T02:19:28.514Z,23.85
2023-03-03T02:23:11.569Z,18.70
2023-03-03T02:26:26.474Z,17.20
2023-03-03T02:29:36.132Z,17.13
2023-03-03T02:32:42.756Z,22.58
2023-03-03T02:35:47.081Z,20.13
2023-03-03T02:38:55.691Z,23.77
2023-03-03T02:42:12.031Z,20.20
2023-03-03T02:45:30.210Z,20.63
2023-03-03T02:48:34.134Z,18.35
2023-03-03T02:51:38.903Z,16.90
2023-03-03T02:54:43.266Z,15.93
2023-03-03T02:57:47.752Z,16.35
2023-03-03T03:00:52.286Z,11.15
2023-03-03T03:04:00.067Z,23.70
2023-03-03T03:07:05.246Z,13.80
2023-03-03T03:10:12.946Z,18.10
2023-03-03T03:13:19.145Z,15.80
2023-03-03T03:16:23.879Z,113.82
2023-03-03T03:19:29.056Z,32.83
2023-03-03T03:22:36.518Z,26.15
2023-03-03T03:25:47.429Z,17.58
2023-03-03T03:28:59.298Z,15.93
2023-03-03T03:32:03.975Z,14.88
2023-03-03T03:35:08.236Z,17.23
2023-03-03T03:38:13.446Z,17.20
2023-03-03T03:44:24.887Z,12.63
2023-03-03T03:47:30.414Z,17.60
2023-03-03T03:50:35.619Z,19.53
2023-03-03T03:53:40.094Z,16.02
2023-03-03T03:56:44.132Z,15.95
2023-03-03T03:59:50.467Z,25.27
2023-03-03T04:02:55.677Z,16.10
2023-03-03T04:09:05.394Z,14.85
2023-03-03T04:12:10.812Z,13.13
2023-03-03T04:15:16.457Z,12.60
2023-03-03T04:18:21.294Z,17.98
2023-03-03T04:21:26.082Z,12.70
2023-03-03T04:24:32.100Z,12.95
2023-03-03T04:27:38.109Z,16.63
2023-03-03T04:30:42.369Z,10.82
2023-03-03T04:33:46.161Z,11.73
2023-03-03T04:36:50.431Z,9.60
2023-03-03T04:39:55.246Z,12.20
2023-03-03T04:42:59.724Z,12.50
2023-03-03T04:46:04.198Z,12.68
2023-03-03T04:49:12.307Z,9.82
2023-03-03T04:52:19.338Z,15.95
2023-03-03T04:55:24.178Z,15.10
2023-03-03T04:58:29.014Z,10.38
2023-03-03T05:01:33.165Z,11.98
2023-03-03T05:04:38.254Z,8.88
2023-03-03T05:07:42.207Z,14.55
2023-03-03T05:10:46.136Z,8.27
2023-03-03T05:13:50.621Z,8.98
2023-03-03T05:16:54.845Z,7.53
2023-03-03T05:19:59.423Z,10.13
2023-03-03T05:23:05.070Z,7.27
2023-03-03T05:26:09.607Z,8.38
2023-03-03T05:29:13.946Z,7.00
2023-03-03T05:32:18.762Z,8.27
2023-03-03T05:35:23.051Z,7.47
2023-03-03T05:38:27.745Z,12.25
2023-03-03T05:41:32.062Z,10.75
2023-03-03T05:44:36.495Z,12.20
2023-03-03T05:47:40.790Z,13.73
2023-03-03T05:50:44.990Z,9.45
2023-03-03T05:53:49.552Z,9.27
2023-03-03T05:56:58.203Z,6.45
2023-03-03T06:03:16.004Z,8.07
2023-03-03T06:06:20.416Z,10.45
2023-03-03T06:09:25.073Z,10.38
2023-03-03T06:12:29.438Z,9.95
2023-03-03T06:15:33.731Z,13.60
2023-03-03T06:18:38.208Z,10.80
2023-03-03T06:21:42.870Z,11.35
2023-03-03T06:24:47.427Z,12.17
2023-03-03T06:27:51.828Z,9.32
2023-03-03T06:30:56.877Z,10.23
2023-03-03T06:34:02.908Z,16.42
2023-03-03T06:37:07.986Z,12.93
2023-03-03T06:40:12.509Z,10.65
2023-03-03T06:43:17.557Z,9.13
2023-03-03T06:46:21.902Z,9.27
2023-03-03T06:49:25.951Z,10.07
2023-03-03T06:52:30.343Z,8.20
2023-03-03T06:55:34.697Z,10.63
2023-03-03T06:58:38.972Z,13.18
2023-03-03T07:01:44.358Z,11.30
2023-03-03T07:04:49.022Z,27.85
2023-03-03T07:07:53.491Z,15.55
2023-03-03T07:11:02.432Z,13.25
2023-03-03T07:14:15.333Z,8.18
2023-03-03T07:17:21.848Z,8.10
2023-03-03T07:20:35.885Z,11.27
2023-03-03T07:23:44.545Z,11.23
2023-03-03T07:26:48.961Z,12.88
2023-03-03T07:29:57.122Z,22.02
2023-03-03T07:33:01.817Z,14.30
2023-03-03T07:36:23.713Z,12.00
2023-03-03T07:39:39.071Z,10.95
2023-03-03T07:42:45.176Z,14.88
2023-03-03T07:46:04.606Z,11.27
2023-03-03T07:49:37.656Z,26.90
2023-03-03T07:52:45.632Z,24.08
2023-03-03T07:55:50.676Z,12.45
2023-03-03T07:58:57.048Z,13.95
2023-03-03T08:02:02.372Z,35.90
2023-03-03T08:05:34.847Z,22.13
2023-03-03T08:08:39.202Z,13.32
2023-03-03T08:12:15.272Z,13.80
2023-03-03T08:15:29.459Z,13.18
2023-03-03T08:18:39.757Z,18.48
2023-03-03T08:21:43.621Z,46.50
2023-03-03T08:24:49.073Z,17.30
2023-03-03T08:31:12.990Z,22.02
2023-03-03T08:34:22.511Z,14.23
2023-03-03T08:37:26.333Z,14.43
2023-03-03T08:40:30.642Z,15.52
2023-03-03T08:43:36.012Z,13.27
2023-03-03T08:46:40.451Z,13.10
2023-03-03T08:49:44.891Z,13.57
2023-03-03T08:52:49.197Z,22.30
2023-03-03T08:55:53.484Z,11.25
2023-03-03T08:59:02.616Z,11.73
2023-03-03T09:02:08.340Z,13.30
2023-03-03T09:05:13.257Z,15.52
2023-03-03T09:08:17.021Z,16.05
2023-03-03T09:11:29.015Z,44.22
2023-03-03T09:14:33.090Z,49.42
2023-03-03T09:17:39.384Z,18.95
2023-03-03T09:20:48.948Z,19.92
2023-03-03T09:23:57.585Z,176.43
2023-03-03T09:27:02.407Z,117.15
2023-03-03T09:30:32.145Z,67.60
2023-03-03T09:33:50.602Z,63.13
2023-03-03T09:36:57.504Z,38.20
2023-03-03T09:40:01.748Z,37.65
2023-03-03T09:43:24.972Z,40.13
2023-03-03T09:47:03.714Z,35.10
2023-03-03T09:50:22.724Z,33.53
2023-03-03T09:54:03.798Z,33.78
2023-03-03T09:57:23.528Z,41.47
2023-03-03T10:00:48.956Z,33.92
2023-03-03T10:04:21.700Z,34.10
2023-03-03T10:08:14.550Z,43.05
2023-03-03T10:11:36.721Z,27.02
2023-03-03T10:14:41.445Z,71.90
2023-03-03T10:17:55.294Z,70.40
2023-03-03T10:21:05.875Z,68.35
2023-03-03T10:24:29.046Z,59.42
2023-03-03T10:28:00.746Z,181.00
2023-03-03T10:31:28.910Z,218.57
2023-03-03T10:35:10.742Z,281.02
2023-03-03T10:38:56.261Z,212.93
2023-03-03T10:42:03.797Z,250.55
2023-03-03T10:45:28.762Z,264.92
2023-03-03T10:49:10.501Z,200.13
2023-03-03T10:52:32.573Z,219.73
2023-03-03T10:55:42.695Z,218.10
2023-03-03T10:58:47.268Z,193.10
2023-03-03T11:02:08.256Z,162.80
2023-03-03T11:05:31.438Z,180.95
2023-03-03T11:09:00.880Z,207.98
2023-03-03T11:12:48.439Z,230.38
2023-03-03T11:16:07.729Z,350.75
2023-03-03T11:19:35.471Z,275.92
2023-03-03T11:22:55.526Z,98.68
2023-03-03T11:26:29.532Z,100.25
2023-03-03T11:29:55.049Z,136.30
2023-03-03T11:33:11.046Z,146.35
2023-03-03T11:36:18.339Z,106.35
2023-03-03T11:39:29.838Z,93.45
2023-03-03T11:43:20.641Z,62.35
2023-03-03T11:46:51.042Z,50.57
2023-03-03T11:50:01.433Z,47.15
2023-03-03T11:53:38.260Z,46.85
2023-03-03T11:56:45.685Z,55.85
2023-03-03T12:00:01.510Z,62.40
2023-03-03T12:04:02.363Z,70.60
2023-03-03T12:07:22.274Z,187.00
2023-03-03T12:10:56.361Z,131.18
2023-03-03T12:14:27.256Z,166.88
2023-03-03T12:17:56.446Z,153.70
2023-03-03T12:21:06.823Z,149.60
2023-03-03T12:24:44.573Z,194.52
2023-03-03T12:28:18.873Z,122.80
2023-03-03T12:31:46.773Z,197.63
2023-03-03T12:35:04.945Z,297.50
2023-03-03T12:38:29.000Z,258.45
2023-03-03T12:41:35.064Z,195.25
2023-03-03T12:45:12.784Z,125.50
2023-03-03T12:48:39.601Z,123.30
2023-03-03T12:51:53.129Z,184.30
2023-03-03T12:55:35.740Z,121.15
2023-03-03T12:58:46.092Z,98.13
2023-03-03T13:02:09.209Z,87.82
2023-03-03T13:05:45.937Z,88.00
2023-03-03T13:09:04.314Z,64.47
2023-03-03T13:12:14.565Z,61.58
2023-03-03T13:15:34.966Z,91.45
2023-03-03T13:19:03.827Z,136.95
2023-03-03T13:22:19.290Z,58.10
2023-03-03T13:25:51.859Z,57.10
2023-03-03T13:29:12.148Z,43.83
2023-03-03T13:32:22.216Z,50.53
2023-03-03T13:35:50.306Z,52.67
2023-03-03T13:38:59.073Z,83.30
2023-03-03T13:42:17.344Z,74.65
2023-03-03T13:45:43.492Z,85.97
2023-03-03T13:49:04.689Z,88.78
2023-03-03T13:52:26.273Z,80.38
2023-03-03T13:55:35.341Z,106.82
2023-03-03T13:59:06.570Z,78.05
2023-03-03T14:03:01.553Z,83.03
2023-03-03T14:06:14.254Z,72.10
2023-03-03T14:09:55.135Z,60.90
2023-03-03T14:13:18.520Z,71.53
2023-03-03T14:16:57.785Z,129.40
2023-03-03T14:20:24.967Z,108.15
2023-03-03T14:23:51.317Z,93.22
2023-03-03T14:26:59.267Z,111.25
2023-03-03T14:30:44.964Z,68.95
2023-03-03T14:34:14.809Z,51.25
2023-03-03T14:37:26.344Z,40.83
2023-03-03T14:40:35.497Z,56.85
2023-03-03T14:43:42.677Z,149.25
2023-03-03T14:47:06.845Z,58.95
2023-03-03T14:50:30.906Z,49.20
2023-03-03T14:53:44.755Z,48.47
2023-03-03T14:57:16.367Z,50.17
2023-03-03T15:00:24.197Z,52.08
2023-03-03T15:03:29.746Z,57.33
2023-03-03T15:09:51.362Z,55.53
2023-03-03T15:12:55.939Z,84.65
2023-03-03T15:16:32.529Z,78.57
2023-03-03T15:23:11.457Z,101.72
2023-03-03T15:26:28.688Z,72.95
2023-03-03T15:29:33.466Z,82.65
2023-03-03T15:33:13.792Z,96.83
2023-03-03T15:36:49.084Z,104.18
2023-03-03T15:39:55.950Z,114.60
2023-03-03T15:43:26.236Z,154.95
2023-03-03T15:46:34.001Z,119.65
2023-03-03T15:50:07.518Z,124.50
2023-03-03T15:54:06.337Z,92.53
2023-03-03T15:57:32.324Z,104.13
2023-03-03T16:00:49.886Z,107.55
2023-03-03T16:03:58.055Z,108.43
2023-03-03T16:07:26.856Z,95.40
2023-03-03T16:10:53.461Z,57.92
2023-03-03T16:14:18.489Z,58.50
2023-03-03T16:17:31.368Z,32.70
2023-03-03T16:21:03.186Z,26.95
2023-03-03T16:24:23.171Z,20.45
2023-03-03T16:27:30.571Z,17.13
2023-03-03T16:31:13.746Z,23.10
2023-03-03T16:34:27.363Z,32.45
2023-03-03T16:37:40.877Z,28.35
2023-03-03T16:40:55.432Z,44.47
2023-03-03T16:44:31.860Z,33.72
2023-03-03T16:47:46.139Z,33.80
2023-03-03T16:51:05.801Z,40.03
2023-03-03T16:54:34.527Z,48.00
2023-03-03T16:57:52.183Z,39.53
2023-03-03T17:01:26.325Z,41.30
2023-03-03T17:04:45.456Z,43.05
2023-03-03T17:08:04.670Z,43.72
2023-03-03T17:11:44.251Z,46.63
2023-03-03T17:15:08.639Z,48.67
2023-03-03T17:18:40.120Z,49.42
2023-03-03T17:22:29.208Z,58.13
2023-03-03T17:25:51.698Z,65.75
2023-03-03T17:29:28.722Z,58.05
2023-03-03T17:33:00.870Z,59.60
2023-03-03T17:36:28.397Z,48.97
2023-03-03T17:39:32.745Z,60.35
2023-03-03T17:43:03.297Z,74.50
2023-03-03T17:46:20.539Z,67.85
2023-03-03T17:49:36.777Z,57.58
2023-03-03T17:52:58.778Z,53.55
2023-03-03T17:56:03.157Z,43.05
2023-03-03T17:59:45.812Z,22.67
2023-03-03T18:02:53.242Z,20.05
2023-03-03T18:06:18.348Z,46.13
2023-03-03T18:09:31.628Z,28.98
2023-03-03T18:12:56.073Z,23.48
2023-03-03T18:16:12.702Z,21.65
2023-03-03T18:19:32.020Z,28.48
2023-03-03T18:22:49.671Z,27.48
2023-03-03T18:26:04.731Z,49.13
2023-03-03T18:29:29.309Z,72.45
2023-03-03T18:32:57.354Z,65.65
2023-03-03T18:36:40.088Z,68.07
2023-03-03T18:39:53.541Z,55.08
2023-03-03T18:42:58.204Z,116.22
2023-03-03T18:46:05.512Z,74.13
2023-03-03T18:49:14.002Z,101.60
2023-03-03T18:52:26.553Z,254.20
2023-03-03T18:55:41.343Z,1020.78
2023-03-03T18:58:46.425Z,58.05
2023-03-03T19:01:52.723Z,102.45
2023-03-03T19:04:58.153Z,87.10
2023-03-03T19:08:17.665Z,94.32
2023-03-03T19:11:35.979Z,65.30
2023-03-03T19:14:49.610Z,391.75
2023-03-03T19:17:58.886Z,458.55
2023-03-03T19:21:07.612Z,889.47
2023-03-03T19:24:24.308Z,89.32
2023-03-03T19:27:45.133Z,53.67
2023-03-03T19:30:59.386Z,66.22
2023-03-03T19:34:22.274Z,61.22
2023-03-03T19:37:43.573Z,82.60
2023-03-03T19:41:10.513Z,65.68
2023-03-03T19:44:33.064Z,74.93
2023-03-03T19:47:40.681Z,70.57
2023-03-03T19:51:24.317Z,43.97
2023-03-03T19:54:51.133Z,38.58
2023-03-03T19:58:23.208Z,282.70
2023-03-03T20:01:51.799Z,450.45
2023-03-03T20:04:59.160Z,794.00
2023-03-03T20:08:41.258Z,350.42
2023-03-03T20:12:22.326Z,164.32
2023-03-03T20:15:48.618Z,78.03
2023-03-03T20:19:09.080Z,184.25
2023-03-03T20:22:19.184Z,107.38
2023-03-03T20:25:32.215Z,208.25
2023-03-03T20:28:45.440Z,150.60
2023-03-03T20:32:24.505Z,207.57
2023-03-03T20:35:40.778Z,405.85
2023-03-03T20:39:08.426Z,531.72
2023-03-03T20:42:52.946Z,757.28
2023-03-03T20:46:13.822Z,445.92
2023-03-03T20:49:39.571Z,273.50
2023-03-03T20:52:52.343Z,254.88
2023-03-03T20:55:56.635Z,234.07
2023-03-03T20:59:17.223Z,209.23
2023-03-03T21:03:07.046Z,212.98
2023-03-03T21:06:22.065Z,191.52
2023-03-03T21:09:34.186Z,224.23
2023-03-03T21:12:44.102Z,291.33
2023-03-03T21:16:06.247Z,298.83
2023-03-03T21:19:25.998Z,312.02
2023-03-03T21:22:30.307Z,178.25
2023-03-03T21:25:54.482Z,209.50
2023-03-03T21:29:03.677Z,193.25
2023-03-03T21:32:34.140Z,356.05
2023-03-03T21:35:59.633Z,379.10
2023-03-03T21:39:25.258Z,122.65
2023-03-03T21:42:46.057Z,82.38
2023-03-03T21:45:50.079Z,83.88
2023-03-03T21:48:54.359Z,91.40
2023-03-03T21:51:59.653Z,134.45
2023-03-03T21:55:03.583Z,314.35
2023-03-03T21:58:07.552Z,68.15
2023-03-03T22:01:12.089Z,60.80
2023-03-03T22:04:16.073Z,68.93
2023-03-03T22:07:19.843Z,66.63
2023-03-03T22:10:24.351Z,62.03
2023-03-03T22:13:30.260Z,95.80
2023-03-03T22:16:35.678Z,129.35
2023-03-03T22:22:44.365Z,84.25
2023-03-03T22:25:48.672Z,88.53
2023-03-03T22:28:52.618Z,83.97
2023-03-03T22:31:56.600Z,207.38
2023-03-03T22:35:00.849Z,93.63
2023-03-03T22:38:05.915Z,93.45
2023-03-03T22:41:09.996Z,83.43
2023-03-03T22:44:14.245Z,313.03
2023-03-03T22:47:18.676Z,74.03
2023-03-03T22:50:23.015Z,49.23
2023-03-03T22:53:27.852Z,48.33
2023-03-03T22:56:32.117Z,72.47
2023-03-03T22:59:36.662Z,57.78
2023-03-03T23:02:42.933Z,43.43
2023-03-03T23:05:49.042Z,37.33
2023-03-03T23:08:55.443Z,37.38
2023-03-03T23:12:00.216Z,34.30
2023-03-03T23:15:07.296Z,29.85
2023-03-03T23:18:11.838Z,26.13
2023-03-03T23:21:16.009Z,26.88
2023-03-03T23:24:19.868Z,24.60
2023-03-03T23:27:24.501Z,26.67
2023-03-03T23:30:28.438Z,38.25
2023-03-03T23:33:32.676Z,31.88
2023-03-03T23:36:36.536Z,36.88
2023-03-03T23:39:41.936Z,28.70
2023-03-03T23:42:46.746Z,25.17
2023-03-03T23:45:50.628Z,32.47
2023-03-03T23:48:54.604Z,31.17
2023-03-03T23:51:58.542Z,36.80
2023-03-03T23:55:02.937Z,27.63
2023-03-03T23:58:07.348Z,28.00
